createdAt,value
2022-10-22T00:02:16.284Z,62.79
2022-10-22T00:05:20.094Z,62.89
2022-10-22T00:08:23.135Z,63.16
2022-10-22T00:11:26.654Z,63.48
2022-10-22T00:14:29.627Z,63.36
2022-10-22T00:17:33.114Z,63.54
2022-10-22T00:20:36.088Z,63.49
2022-10-22T00:23:42.954Z,63.88
2022-10-22T00:26:46.197Z,63.85
2022-10-22T00:29:49.740Z,63.56
2022-10-22T00:32:52.646Z,64.48
2022-10-22T00:35:58.905Z,64.77
2022-10-22T00:39:01.962Z,66.17
2022-10-22T00:42:05.499Z,66.51
2022-10-22T00:45:11.750Z,66.12
2022-10-22T00:48:31.797Z,66.97
2022-10-22T00:51:36.219Z,68.29
2022-10-22T00:54:40.469Z,68.51
2022-10-22T00:57:43.972Z,68.43
2022-10-22T01:00:48.325Z,67.65
2022-10-22T01:03:52.282Z,66.35
2022-10-22T01:06:55.937Z,65.78
2022-10-22T01:10:11.260Z,65.49
2022-10-22T01:13:35.232Z,65.86
2022-10-22T01:17:01.000Z,65.88
2022-10-22T01:20:11.280Z,64.94
2022-10-22T01:23:46.952Z,65.60
2022-10-22T01:27:01.008Z,65.18
2022-10-22T01:30:08.516Z,65.05
2022-10-22T01:33:14.481Z,65.70
2022-10-22T01:36:18.506Z,65.71
2022-10-22T01:39:23.784Z,65.07
2022-10-22T01:42:28.335Z,66.49
2022-10-22T01:45:41.048Z,66.58
2022-10-22T01:49:27.095Z,65.68
2022-10-22T01:52:49.978Z,64.76
2022-10-22T01:56:16.579Z,64.60
2022-10-22T01:59:21.199Z,64.49
2022-10-22T02:02:49.608Z,64.54
2022-10-22T02:05:56.443Z,65.18
2022-10-22T02:09:00.968Z,65.38
2022-10-22T02:12:06.966Z,66.16
2022-10-22T02:15:11.250Z,67.40
2022-10-22T02:18:15.961Z,67.95
2022-10-22T02:21:19.122Z,68.80
2022-10-22T02:24:22.967Z,68.72
2022-10-22T02:27:27.105Z,69.09
2022-10-22T02:30:31.280Z,70.09
2022-10-22T02:33:37.325Z,70.56
2022-10-22T02:36:46.619Z,70.96
2022-10-22T02:39:53.356Z,71.29
2022-10-22T02:42:57.043Z,71.64
2022-10-22T02:46:00.049Z,71.04
2022-10-22T02:49:03.828Z,71.46
2022-10-22T02:52:06.986Z,71.53
2022-10-22T02:55:10.574Z,72.15
2022-10-22T02:58:14.210Z,72.90
2022-10-22T03:01:18.047Z,73.47
2022-10-22T03:04:21.191Z,74.55
2022-10-22T03:07:25.083Z,75.09
2022-10-22T03:10:28.171Z,75.31
2022-10-22T03:13:34.743Z,75.53
2022-10-22T03:16:37.903Z,75.33
2022-10-22T03:19:42.294Z,75.45
2022-10-22T03:22:45.744Z,75.54
2022-10-22T03:25:50.248Z,75.80
2022-10-22T03:28:54.112Z,76.40
2022-10-22T03:31:57.529Z,75.23
2022-10-22T03:38:03.966Z,75.71
2022-10-22T03:41:07.656Z,75.47
2022-10-22T03:44:11.122Z,74.81
2022-10-22T03:47:14.187Z,74.59
2022-10-22T03:50:17.769Z,75.06
2022-10-22T03:53:22.371Z,75.00
2022-10-22T03:56:25.914Z,73.54
2022-10-22T03:59:30.036Z,71.68
2022-10-22T04:02:34.919Z,71.80
2022-10-22T04:05:38.293Z,72.04
2022-10-22T04:08:42.638Z,72.46
2022-10-22T04:11:45.862Z,72.87
2022-10-22T04:14:49.258Z,72.48
2022-10-22T04:17:52.618Z,70.93
2022-10-22T04:20:55.578Z,71.24
2022-10-22T04:23:59.112Z,71.74
2022-10-22T04:27:02.198Z,71.45
2022-10-22T04:30:06.943Z,73.15
2022-10-22T04:33:10.550Z,73.27
2022-10-22T04:36:18.393Z,74.40
2022-10-22T04:39:24.932Z,74.90
2022-10-22T04:45:48.208Z,75.81
2022-10-22T04:48:52.788Z,76.18
2022-10-22T04:51:55.968Z,76.93
2022-10-22T04:54:59.385Z,77.05
2022-10-22T04:58:03.285Z,77.08
2022-10-22T05:01:16.391Z,78.00
2022-10-22T05:04:19.873Z,77.52
2022-10-22T05:07:24.032Z,78.44
2022-10-22T05:10:27.187Z,77.87
2022-10-22T05:13:30.453Z,77.88
2022-10-22T05:16:36.227Z,77.93
2022-10-22T05:19:46.807Z,77.51
2022-10-22T05:22:50.097Z,77.26
2022-10-22T05:25:53.335Z,76.63
2022-10-22T05:28:56.277Z,77.20
2022-10-22T05:31:59.549Z,77.92
2022-10-22T05:35:02.461Z,77.79
2022-10-22T05:38:06.741Z,77.62
2022-10-22T05:41:11.954Z,78.09
2022-10-22T05:44:15.191Z,78.21
2022-10-22T05:47:18.056Z,78.61
2022-10-22T05:50:21.615Z,77.19
2022-10-22T05:53:24.573Z,76.54
2022-10-22T05:56:29.355Z,76.14
2022-10-22T05:59:32.401Z,74.84
2022-10-22T06:02:35.741Z,77.01
2022-10-22T06:05:39.075Z,79.04
2022-10-22T06:08:42.517Z,78.62
2022-10-22T06:11:46.800Z,77.79
2022-10-22T06:14:49.811Z,79.15
2022-10-22T06:17:53.040Z,79.04
2022-10-22T06:21:04.917Z,76.72
2022-10-22T06:24:11.921Z,75.55
2022-10-22T06:30:48.804Z,74.59
2022-10-22T06:34:04.540Z,75.13
2022-10-22T06:37:11.571Z,74.42
2022-10-22T06:43:51.401Z,72.09
2022-10-22T06:47:38.594Z,71.00
2022-10-22T06:50:50.330Z,70.52
2022-10-22T06:53:55.314Z,68.43
2022-10-22T06:57:01.746Z,67.63
2022-10-22T07:00:23.136Z,68.94
2022-10-22T07:03:26.634Z,68.38
2022-10-22T07:06:30.541Z,68.36
2022-10-22T07:09:57.086Z,67.83
2022-10-22T07:13:17.746Z,68.05
2022-10-22T07:16:32.814Z,68.46
2022-10-22T07:19:37.478Z,68.82
2022-10-22T07:22:45.984Z,68.86
2022-10-22T07:25:59.421Z,69.23
2022-10-22T07:29:03.202Z,68.45
2022-10-22T07:32:07.142Z,69.09
2022-10-22T07:35:12.727Z,68.82
2022-10-22T07:38:19.528Z,68.41
2022-10-22T08:07:53.141Z,62.29
2022-10-22T08:11:16.819Z,62.88
2022-10-22T08:14:33.463Z,61.62
2022-10-22T08:17:39.520Z,60.85
2022-10-22T08:20:43.444Z,62.77
2022-10-22T08:23:46.893Z,63.42
2022-10-22T08:26:50.408Z,63.18
2022-10-22T08:29:55.282Z,63.51
2022-10-22T08:32:58.586Z,63.03
2022-10-22T08:36:15.004Z,62.90
2022-10-22T08:39:25.203Z,62.18
2022-10-22T08:43:06.496Z,62.07
2022-10-22T08:46:37.203Z,63.81
2022-10-22T08:49:57.294Z,64.03
2022-10-22T08:57:25.358Z,61.69
2022-10-22T09:00:35.977Z,62.59
2022-10-22T09:03:45.148Z,62.22
2022-10-22T09:06:57.994Z,62.25
2022-10-22T12:18:20.949Z,60.49
2022-10-22T12:21:35.980Z,60.90
2022-10-22T12:24:43.379Z,61.98
2022-10-22T12:28:06.786Z,62.12
2022-10-22T12:31:49.803Z,63.21
2022-10-22T12:34:57.407Z,62.77
2022-10-22T12:43:28.489Z,62.71
2022-10-22T12:46:57.067Z,62.91
2022-10-22T17:26:35.054Z,92.10
2022-10-22T17:29:38.860Z,93.03
2022-10-22T17:32:42.214Z,93.36
2022-10-22T17:35:50.141Z,92.71
2022-10-22T17:38:55.779Z,92.28
2022-10-22T17:42:03.431Z,91.94
2022-10-22T17:45:10.689Z,92.94
2022-10-22T17:48:14.684Z,92.74
2022-10-22T17:51:21.929Z,92.77
2022-10-22T17:54:31.254Z,93.18
2022-10-22T17:57:34.885Z,91.92
2022-10-22T18:00:38.679Z,92.94
2022-10-22T18:03:43.154Z,92.08
2022-10-22T18:06:48.184Z,92.31
2022-10-22T18:09:55.299Z,94.65
2022-10-22T18:12:59.274Z,93.66
2022-10-22T18:16:03.190Z,94.09
2022-10-22T18:19:14.580Z,93.75
2022-10-22T18:22:19.665Z,94.54
2022-10-22T18:25:26.852Z,93.42
2022-10-22T18:28:42.729Z,92.67
2022-10-22T18:31:51.135Z,93.50
2022-10-22T18:35:01.817Z,93.29
2022-10-22T18:38:05.488Z,93.36
2022-10-22T18:41:10.695Z,93.45
2022-10-22T18:44:16.268Z,93.72
2022-10-22T18:47:25.539Z,93.70
2022-10-22T18:50:30.033Z,93.85
2022-10-22T18:53:35.846Z,94.62
2022-10-22T18:56:40.974Z,95.09
2022-10-22T18:59:50.403Z,95.07
2022-10-22T19:02:55.505Z,95.06
2022-10-22T19:06:00.372Z,95.51
2022-10-22T19:09:04.647Z,95.68
2022-10-22T19:12:09.309Z,96.09
2022-10-22T19:15:13.066Z,95.92
2022-10-22T19:18:18.293Z,96.16
2022-10-22T19:21:23.382Z,96.17
2022-10-22T19:24:29.412Z,96.02
2022-10-22T19:27:33.478Z,96.36
2022-10-22T19:30:41.553Z,96.82
2022-10-22T19:33:48.169Z,97.09
2022-10-22T19:36:52.360Z,97.09
2022-10-22T19:39:59.253Z,96.86
2022-10-22T19:43:05.391Z,96.88
2022-10-22T19:46:10.867Z,97.11
2022-10-22T19:49:18.850Z,97.60
2022-10-22T19:52:25.321Z,97.59
2022-10-22T19:55:29.143Z,97.41
2022-10-22T19:58:38.205Z,97.76
2022-10-22T20:01:41.671Z,97.52
2022-10-22T20:04:50.752Z,97.83
2022-10-22T20:08:03.004Z,97.26
2022-10-22T20:11:17.215Z,97.57
2022-10-22T20:14:45.515Z,98.15
2022-10-22T20:17:52.606Z,97.90
2022-10-22T20:20:56.926Z,98.15
2022-10-22T20:24:03.832Z,98.94
2022-10-22T20:27:10.682Z,98.67
2022-10-22T20:33:22.207Z,99.22
2022-10-22T20:36:27.166Z,98.96
2022-10-22T20:39:30.774Z,99.25
2022-10-22T20:42:34.906Z,99.65
2022-10-22T20:45:38.122Z,99.12
2022-10-22T20:48:41.742Z,99.24
2022-10-22T20:51:45.293Z,99.71
2022-10-22T20:54:49.303Z,100.00
2022-10-22T20:57:52.609Z,100.00
2022-10-22T21:00:57.369Z,100.00
2022-10-22T21:04:01.499Z,100.00
2022-10-22T21:07:05.867Z,100.00
2022-10-22T21:10:09.260Z,100.00
2022-10-22T21:13:14.249Z,100.00
2022-10-22T21:16:19.893Z,100.00
2022-10-22T21:19:24.541Z,100.00
2022-10-22T21:22:27.915Z,100.00
2022-10-22T21:25:31.849Z,100.00
2022-10-22T21:28:37.051Z,100.00
2022-10-22T21:31:40.714Z,100.00
2022-10-22T21:34:43.884Z,100.00
2022-10-22T21:37:47.421Z,100.00
2022-10-22T21:40:51.021Z,100.00
2022-10-22T21:43:54.720Z,100.00
2022-10-22T21:46:57.756Z,100.00
2022-10-22T21:50:01.278Z,100.00
2022-10-22T21:53:04.145Z,100.00
2022-10-22T21:56:08.119Z,100.00
2022-10-22T21:59:11.035Z,100.00
2022-10-22T22:02:14.263Z,100.00
2022-10-22T22:05:17.936Z,100.00
2022-10-22T22:08:20.867Z,100.00
2022-10-22T22:11:27.900Z,100.00
2022-10-22T22:14:32.824Z,100.00
2022-10-22T22:17:36.166Z,100.00
2022-10-22T22:20:39.139Z,100.00
2022-10-22T22:23:44.307Z,100.00
2022-10-22T22:26:48.314Z,100.00
2022-10-22T22:29:51.739Z,100.00
2022-10-22T22:32:55.160Z,100.00
2022-10-22T22:35:59.877Z,100.00
2022-10-22T22:39:05.099Z,100.00
2022-10-22T22:42:08.696Z,100.00
2022-10-22T22:45:14.303Z,100.00
2022-10-22T22:48:17.828Z,100.00
2022-10-22T22:51:21.154Z,100.00
2022-10-22T22:54:24.514Z,100.00
2022-10-22T22:57:27.519Z,100.00
2022-10-22T23:00:32.300Z,100.00
2022-10-22T23:03:35.361Z,100.00
2022-10-22T23:06:40.384Z,100.00
2022-10-22T23:09:43.343Z,100.00
2022-10-22T23:12:47.064Z,100.00
2022-10-22T23:15:50.064Z,100.00
2022-10-22T23:18:54.774Z,100.00
2022-10-22T23:21:57.837Z,100.00
2022-10-22T23:25:01.155Z,100.00
2022-10-22T23:28:04.199Z,100.00
2022-10-22T23:31:07.969Z,100.00
2022-10-22T23:34:13.136Z,100.00
2022-10-22T23:37:16.481Z,100.00
2022-10-22T23:40:19.448Z,100.00
2022-10-22T23:43:24.662Z,100.00
2022-10-22T23:46:27.760Z,100.00
2022-10-22T23:49:31.980Z,100.00
2022-10-22T23:52:35.336Z,100.00
2022-10-22T23:55:40.168Z,100.00
2022-10-22T23:58:44.700Z,100.00
